createdAt,value
2018-12-11T00:01:52.462Z,1.87
2018-12-11T00:04:26.987Z,1.90
2018-12-11T00:07:01.423Z,2.33
2018-12-11T00:09:35.817Z,4.28
2018-12-11T00:12:10.179Z,3.70
2018-12-11T00:14:44.632Z,5.20
2018-12-11T00:17:19.187Z,5.03
2018-12-11T00:19:53.693Z,4.65
2018-12-11T00:22:28.036Z,6.37
2018-12-11T00:25:02.566Z,2.60
2018-12-11T00:27:37.051Z,9.68
2018-12-11T00:30:11.496Z,1.75
2018-12-11T00:32:45.872Z,3.15
2018-12-11T00:35:20.225Z,1.80
2018-12-11T00:37:54.580Z,2.35
2018-12-11T00:40:29.187Z,2.33
2018-12-11T00:43:03.624Z,9.73
2018-12-11T00:45:38.071Z,5.55
2018-12-11T00:48:12.506Z,38.98
2018-12-11T00:50:47.037Z,42.83
2018-12-11T00:53:21.472Z,56.83
2018-12-11T00:55:55.750Z,25.17
2018-12-11T00:58:30.290Z,2.85
2018-12-11T01:01:04.826Z,3.00
2018-12-11T01:03:39.229Z,2.12
2018-12-11T01:06:13.781Z,2.00
2018-12-11T01:08:48.265Z,2.58
2018-12-11T01:11:22.769Z,3.37
2018-12-11T01:13:57.091Z,1.82
2018-12-11T01:16:31.585Z,1.70
2018-12-11T01:19:06.187Z,1.62
2018-12-11T01:21:40.510Z,2.77
2018-12-11T01:24:14.784Z,8.73
2018-12-11T01:26:49.414Z,1.57
2018-12-11T01:29:23.936Z,3.47
2018-12-11T01:31:58.493Z,2.37
2018-12-11T01:34:32.893Z,5.33
2018-12-11T01:37:07.308Z,2.50
2018-12-11T01:39:41.763Z,7.28
2018-12-11T01:42:16.113Z,1.27
2018-12-11T01:44:50.570Z,2.08
2018-12-11T01:47:25.050Z,4.53
2018-12-11T01:49:59.438Z,1.62
2018-12-11T01:52:33.824Z,41.55
2018-12-11T01:55:08.398Z,37.40
2018-12-11T01:57:42.899Z,23.42
2018-12-11T02:00:18.326Z,16.40
2018-12-11T02:02:52.782Z,5.90
2018-12-11T02:05:27.175Z,14.60
2018-12-11T02:08:01.568Z,1.60
2018-12-11T02:10:36.004Z,3.15
2018-12-11T02:13:10.300Z,1.95
2018-12-11T02:15:44.604Z,3.05
2018-12-11T02:18:18.950Z,10.03
2018-12-11T02:20:53.264Z,1.60
2018-12-11T02:23:27.720Z,4.28
2018-12-11T02:26:02.074Z,9.98
2018-12-11T02:28:36.434Z,4.42
2018-12-11T02:31:10.754Z,8.95
2018-12-11T02:33:45.297Z,8.18
2018-12-11T02:36:19.758Z,6.72
2018-12-11T02:38:54.132Z,3.75
2018-12-11T02:41:28.465Z,2.45
2018-12-11T02:44:03.250Z,1.62
2018-12-11T02:46:37.782Z,2.58
2018-12-11T02:49:12.296Z,2.08
2018-12-11T02:51:46.567Z,0.88
2018-12-11T02:54:21.037Z,19.02
2018-12-11T02:56:55.396Z,28.87
2018-12-11T02:59:29.782Z,25.90
2018-12-11T03:02:04.489Z,26.37
2018-12-11T03:04:39.122Z,20.77
2018-12-11T03:07:13.555Z,7.47
2018-12-11T03:09:47.997Z,4.53
2018-12-11T03:12:22.508Z,7.58
2018-12-11T03:14:56.845Z,5.08
2018-12-11T03:17:31.239Z,4.95
2018-12-11T03:20:05.724Z,4.12
2018-12-11T03:22:42.247Z,1.92
2018-12-11T03:25:16.625Z,4.10
2018-12-11T03:27:50.980Z,2.40
2018-12-11T03:30:25.409Z,3.02
2018-12-11T03:32:59.806Z,5.40
2018-12-11T03:35:35.673Z,0.80
2018-12-11T03:38:10.061Z,1.95
2018-12-11T03:40:44.503Z,5.58
2018-12-11T03:43:18.780Z,5.53
2018-12-11T03:45:54.159Z,3.20
2018-12-11T03:48:28.419Z,1.40
2018-12-11T03:51:02.745Z,2.35
2018-12-11T03:53:37.161Z,3.25
2018-12-11T03:56:11.502Z,5.50
2018-12-11T03:58:45.951Z,9.68
2018-12-11T04:01:20.350Z,13.55
2018-12-11T04:03:54.907Z,32.70
2018-12-11T04:06:29.354Z,14.15
2018-12-11T04:09:05.504Z,4.47
2018-12-11T04:11:39.940Z,9.30
2018-12-11T04:14:14.616Z,1.95
2018-12-11T04:16:49.145Z,1.40
2018-12-11T04:19:24.445Z,3.72
2018-12-11T04:21:58.690Z,4.45
2018-12-11T04:24:33.223Z,2.08
2018-12-11T04:27:07.487Z,5.42
2018-12-11T04:29:41.903Z,2.72
2018-12-11T04:32:16.345Z,2.35
2018-12-11T04:34:50.728Z,3.58
2018-12-11T04:37:25.201Z,5.65
2018-12-11T04:39:59.733Z,4.10
2018-12-11T04:42:34.124Z,8.25
2018-12-11T04:45:08.536Z,4.12
2018-12-11T04:47:43.058Z,8.40
2018-12-11T04:50:17.589Z,3.27
2018-12-11T04:52:51.953Z,15.38
2018-12-11T04:55:26.281Z,7.97
2018-12-11T04:58:00.810Z,5.67
2018-12-11T05:00:35.141Z,10.88
2018-12-11T05:03:09.533Z,20.35
2018-12-11T05:05:44.061Z,27.85
2018-12-11T05:08:18.574Z,17.25
2018-12-11T05:10:54.197Z,10.72
2018-12-11T05:13:28.540Z,24.65
2018-12-11T05:16:02.923Z,10.58
2018-12-11T05:18:37.430Z,5.55
2018-12-11T05:21:11.837Z,4.65
2018-12-11T05:23:46.110Z,6.15
2018-12-11T05:26:20.575Z,4.60
2018-12-11T05:28:55.028Z,2.60
2018-12-11T05:31:29.446Z,3.42
2018-12-11T05:34:03.843Z,7.92
2018-12-11T05:36:38.486Z,2.65
2018-12-11T05:39:12.908Z,3.75
2018-12-11T05:41:47.445Z,3.90
2018-12-11T05:44:21.797Z,7.92
2018-12-11T05:46:56.201Z,3.87
2018-12-11T05:49:30.625Z,3.83
2018-12-11T05:52:05.164Z,6.62
2018-12-11T05:54:39.423Z,4.45
2018-12-11T05:57:13.797Z,12.23
2018-12-11T05:59:48.176Z,3.70
2018-12-11T06:02:22.498Z,3.80
2018-12-11T06:04:57.093Z,3.42
2018-12-11T06:07:31.416Z,9.38
2018-12-11T06:10:07.501Z,5.42
2018-12-11T06:12:41.789Z,15.83
2018-12-11T06:15:16.317Z,43.78
2018-12-11T06:17:50.802Z,18.37
2018-12-11T06:20:25.121Z,10.38
2018-12-11T06:22:59.545Z,7.90
2018-12-11T06:25:33.836Z,6.00
2018-12-11T06:28:08.287Z,5.85
2018-12-11T06:30:42.673Z,3.92
2018-12-11T06:33:17.044Z,10.32
2018-12-11T06:35:51.369Z,24.85
2018-12-11T06:38:25.823Z,44.45
2018-12-11T06:41:00.240Z,25.80
2018-12-11T06:43:34.572Z,13.03
2018-12-11T06:46:09.066Z,2.05
2018-12-11T06:48:43.573Z,3.08
2018-12-11T06:51:18.121Z,3.45
2018-12-11T06:53:52.464Z,15.68
2018-12-11T06:56:26.743Z,4.70
2018-12-11T06:59:01.258Z,2.10
2018-12-11T07:01:35.732Z,5.37
2018-12-11T07:04:10.063Z,3.02
2018-12-11T07:06:44.592Z,2.10
2018-12-11T07:09:19.033Z,3.55
2018-12-11T07:11:53.399Z,6.00
2018-12-11T07:14:27.953Z,2.08
2018-12-11T07:17:02.407Z,6.05
2018-12-11T07:19:36.832Z,24.82
2018-12-11T07:22:11.243Z,37.98
2018-12-11T07:24:45.614Z,60.35
2018-12-11T07:27:20.048Z,27.13
2018-12-11T07:29:54.621Z,15.35
2018-12-11T07:32:28.933Z,4.40
2018-12-11T07:35:03.660Z,12.28
2018-12-11T07:37:38.071Z,4.85
2018-12-11T07:40:12.480Z,5.90
2018-12-11T07:42:46.884Z,2.87
2018-12-11T07:45:21.185Z,6.50
2018-12-11T07:47:55.608Z,9.40
2018-12-11T07:50:30.158Z,37.60
2018-12-11T07:53:06.466Z,15.40
2018-12-11T07:55:40.942Z,14.55
2018-12-11T07:58:15.214Z,16.82
2018-12-11T08:00:49.561Z,9.58
2018-12-11T08:03:23.808Z,21.90
2018-12-11T08:05:58.116Z,35.20
2018-12-11T08:08:32.477Z,23.10
2018-12-11T08:11:06.987Z,25.80
2018-12-11T08:13:41.293Z,10.50
2018-12-11T08:16:16.926Z,9.50
2018-12-11T08:18:51.905Z,25.45
2018-12-11T08:21:26.611Z,8.18
2018-12-11T08:24:00.958Z,8.60
2018-12-11T08:26:35.359Z,20.72
2018-12-11T08:29:09.920Z,7.85
2018-12-11T08:31:44.304Z,25.60
2018-12-11T08:34:18.765Z,27.40
2018-12-11T08:36:53.200Z,21.10
2018-12-11T08:39:27.674Z,18.70
2018-12-11T08:42:02.140Z,10.98
2018-12-11T08:44:36.703Z,8.15
2018-12-11T08:47:11.337Z,12.13
2018-12-11T08:49:45.645Z,9.83
2018-12-11T08:52:20.405Z,7.12
2018-12-11T08:54:54.741Z,6.45
2018-12-11T08:57:29.179Z,10.18
2018-12-11T09:00:04.051Z,5.20
2018-12-11T09:02:38.446Z,1.77
2018-12-11T09:05:12.955Z,6.40
2018-12-11T09:07:47.292Z,5.17
2018-12-11T09:10:21.725Z,10.03
2018-12-11T09:12:56.085Z,22.58
2018-12-11T09:15:30.381Z,7.05
2018-12-11T09:18:04.684Z,7.20
2018-12-11T09:20:39.144Z,5.47
2018-12-11T09:23:13.593Z,7.47
2018-12-11T09:25:48.091Z,3.65
2018-12-11T09:28:22.456Z,14.78
2018-12-11T09:30:57.000Z,4.50
2018-12-11T09:33:31.468Z,5.78
2018-12-11T09:36:05.996Z,7.60
2018-12-11T09:38:40.670Z,14.85
2018-12-11T09:41:15.039Z,33.20
2018-12-11T09:43:49.508Z,23.42
2018-12-11T09:46:24.029Z,22.30
2018-12-11T09:48:58.463Z,17.45
2018-12-11T09:51:33.170Z,8.88
2018-12-11T09:54:07.443Z,4.47
2018-12-11T09:56:41.973Z,5.67
2018-12-11T09:59:16.294Z,1.27
2018-12-11T10:01:50.686Z,5.83
2018-12-11T10:04:25.117Z,3.27
2018-12-11T10:06:59.419Z,2.95
2018-12-11T10:09:33.775Z,1.60
2018-12-11T10:12:08.124Z,2.95
2018-12-11T10:14:42.523Z,1.95
2018-12-11T10:17:17.060Z,5.83
2018-12-11T10:19:51.436Z,4.55
2018-12-11T10:22:25.894Z,1.25
2018-12-11T10:25:00.306Z,2.30
2018-12-11T10:27:34.643Z,1.85
2018-12-11T10:30:10.309Z,1.40
2018-12-11T10:32:49.162Z,1.70
2018-12-11T10:35:23.737Z,1.60
2018-12-11T10:37:58.222Z,2.10
2018-12-11T10:40:32.674Z,13.13
2018-12-11T10:43:07.180Z,35.48
2018-12-11T10:45:41.542Z,46.02
2018-12-11T10:48:16.006Z,23.05
2018-12-11T10:50:50.473Z,34.83
2018-12-11T10:53:24.941Z,2.62
2018-12-11T10:55:59.256Z,2.05
2018-12-11T10:58:33.798Z,1.70
2018-12-11T11:01:13.640Z,2.20
2018-12-11T11:03:48.034Z,1.42
2018-12-11T11:06:22.613Z,1.00
2018-12-11T11:08:57.004Z,4.28
2018-12-11T11:11:31.364Z,1.20
2018-12-11T11:14:05.738Z,3.92
2018-12-11T11:16:40.072Z,11.03
2018-12-11T11:19:14.407Z,1.50
2018-12-11T11:21:48.797Z,1.77
2018-12-11T11:24:23.372Z,3.80
2018-12-11T11:26:57.969Z,1.40
2018-12-11T11:29:32.454Z,2.90
2018-12-11T11:32:06.760Z,1.87
2018-12-11T11:34:41.194Z,1.00
2018-12-11T11:37:15.514Z,6.00
2018-12-11T11:39:49.976Z,1.80
2018-12-11T11:42:24.672Z,2.37
2018-12-11T11:44:59.351Z,13.32
2018-12-11T11:47:33.667Z,22.85
2018-12-11T11:50:11.220Z,47.83
2018-12-11T11:52:45.646Z,16.90
2018-12-11T11:55:20.192Z,21.68
2018-12-11T11:57:54.466Z,3.02
2018-12-11T12:00:28.876Z,4.65
2018-12-11T12:03:03.348Z,1.90
2018-12-11T12:05:37.787Z,4.40
2018-12-11T12:08:12.170Z,2.60
2018-12-11T12:10:46.769Z,1.47
2018-12-11T12:13:21.356Z,3.45
2018-12-11T12:15:55.745Z,3.37
2018-12-11T12:18:30.129Z,3.45
2018-12-11T12:21:04.582Z,1.87
2018-12-11T12:23:38.985Z,0.70
2018-12-11T12:26:13.430Z,2.50
2018-12-11T12:28:47.788Z,1.17
2018-12-11T12:31:23.604Z,2.70
2018-12-11T12:33:58.110Z,1.20
2018-12-11T12:36:32.545Z,1.50
2018-12-11T12:39:08.182Z,15.18
2018-12-11T12:41:42.705Z,1.30
2018-12-11T12:44:17.230Z,0.90
2018-12-11T12:46:51.524Z,13.28
2018-12-11T12:49:25.816Z,17.15
2018-12-11T12:52:00.471Z,29.32
2018-12-11T12:54:34.852Z,18.17
2018-12-11T12:57:09.267Z,5.85
2018-12-11T12:59:43.653Z,6.37
2018-12-11T13:02:18.053Z,8.53
2018-12-11T13:04:52.507Z,4.42
2018-12-11T13:07:26.845Z,2.02
2018-12-11T13:10:01.284Z,2.08
2018-12-11T13:12:35.878Z,1.85
2018-12-11T13:15:10.406Z,3.10
2018-12-11T13:17:44.838Z,7.87
2018-12-11T13:20:19.334Z,3.60
2018-12-11T13:22:53.804Z,1.55
2018-12-11T13:25:28.043Z,1.65
2018-12-11T13:28:02.417Z,4.72
2018-12-11T13:30:37.271Z,3.55
2018-12-11T13:33:11.659Z,2.30
2018-12-11T13:35:46.280Z,2.77
2018-12-11T13:38:20.582Z,1.47
2018-12-11T13:40:55.171Z,3.55
2018-12-11T13:43:29.610Z,15.48
2018-12-11T13:46:04.004Z,1.30
2018-12-11T13:48:38.801Z,13.38
2018-12-11T13:51:13.088Z,1.70
2018-12-11T13:53:47.432Z,4.10
2018-12-11T13:56:21.754Z,1.62
2018-12-11T13:58:56.093Z,34.40
2018-12-11T14:01:30.609Z,23.02
2018-12-11T14:04:05.099Z,5.08
2018-12-11T14:06:39.453Z,2.50
2018-12-11T14:09:19.460Z,7.92
2018-12-11T14:11:53.753Z,9.10
2018-12-11T14:14:28.257Z,4.00
2018-12-11T14:17:02.800Z,2.02
2018-12-11T14:19:37.356Z,3.40
2018-12-11T14:22:11.668Z,4.90
2018-12-11T14:24:45.952Z,23.30
2018-12-11T14:27:20.263Z,27.95
2018-12-11T14:29:54.725Z,28.62
2018-12-11T14:32:29.213Z,21.17
2018-12-11T14:35:04.178Z,5.72
2018-12-11T14:37:38.700Z,4.70
2018-12-11T14:40:13.320Z,7.62
2018-12-11T14:42:47.680Z,14.10
2018-12-11T14:45:22.028Z,2.42
2018-12-11T14:47:56.521Z,22.75
2018-12-11T14:50:30.821Z,36.10
2018-12-11T14:53:05.264Z,11.95
2018-12-11T14:55:39.783Z,7.50
2018-12-11T14:58:14.142Z,5.72
2018-12-11T15:00:48.645Z,6.45
2018-12-11T15:03:23.008Z,6.35
2018-12-11T15:05:57.504Z,3.90
2018-12-11T15:08:32.100Z,3.67
2018-12-11T15:11:06.416Z,8.95
2018-12-11T15:13:40.947Z,3.65
2018-12-11T15:16:15.696Z,4.17
2018-12-11T15:18:50.033Z,7.47
2018-12-11T15:21:24.359Z,10.65
2018-12-11T15:23:58.889Z,12.80
2018-12-11T15:26:33.389Z,8.55
2018-12-11T15:29:07.779Z,15.63
2018-12-11T15:31:42.187Z,23.98
2018-12-11T15:34:16.509Z,26.60
2018-12-11T15:36:50.836Z,39.30
2018-12-11T15:39:25.444Z,16.10
2018-12-11T15:41:59.956Z,11.83
2018-12-11T15:44:34.236Z,10.85
2018-12-11T15:47:08.801Z,6.00
2018-12-11T15:49:43.121Z,12.80
2018-12-11T15:52:17.552Z,63.85
2018-12-11T15:54:51.864Z,30.60
2018-12-11T15:57:26.347Z,90.97
2018-12-11T16:00:00.844Z,17.20
2018-12-11T16:02:35.172Z,12.10
2018-12-11T16:05:09.652Z,9.40
2018-12-11T16:07:44.144Z,5.67
2018-12-11T16:10:18.474Z,7.75
2018-12-11T16:12:53.203Z,7.50
2018-12-11T16:15:27.502Z,5.97
2018-12-11T16:18:01.802Z,6.67
2018-12-11T16:20:36.065Z,5.95
2018-12-11T16:23:10.442Z,10.43
2018-12-11T16:25:44.929Z,10.05
2018-12-11T16:28:19.273Z,8.83
2018-12-11T16:30:53.696Z,9.88
2018-12-11T16:33:28.149Z,14.87
2018-12-11T16:36:02.610Z,17.37
2018-12-11T16:38:37.104Z,6.67
2018-12-11T16:41:11.421Z,9.28
2018-12-11T16:43:45.821Z,8.98
2018-12-11T16:46:20.420Z,6.35
2018-12-11T16:48:54.732Z,9.10
2018-12-11T16:51:29.119Z,4.80
2018-12-11T16:54:03.397Z,5.42
2018-12-11T16:56:37.680Z,4.20
2018-12-11T16:59:12.120Z,13.32
2018-12-11T17:01:46.639Z,10.25
2018-12-11T17:04:21.067Z,30.27
2018-12-11T17:06:55.403Z,30.97
2018-12-11T17:09:29.939Z,15.78
2018-12-11T17:12:04.857Z,8.08
2018-12-11T17:14:39.416Z,12.20
2018-12-11T17:17:13.841Z,28.05
2018-12-11T17:19:48.131Z,33.00
2018-12-11T17:22:22.628Z,34.90
2018-12-11T17:24:57.069Z,24.80
2018-12-11T17:27:31.458Z,22.85
2018-12-11T17:30:06.757Z,7.22
2018-12-11T17:32:41.155Z,8.75
2018-12-11T17:35:15.621Z,17.12
2018-12-11T17:37:50.164Z,10.85
2018-12-11T17:40:24.701Z,10.48
2018-12-11T17:42:59.069Z,14.73
2018-12-11T17:45:33.552Z,21.15
2018-12-11T17:48:09.026Z,48.85
2018-12-11T17:50:43.469Z,38.58
2018-12-11T17:53:17.893Z,22.65
2018-12-11T17:55:52.422Z,12.43
2018-12-11T17:58:26.907Z,20.80
2018-12-11T18:01:01.311Z,16.07
2018-12-11T18:03:35.633Z,34.88
2018-12-11T18:06:09.930Z,37.48
2018-12-11T18:08:44.384Z,25.15
2018-12-11T18:11:18.652Z,38.92
2018-12-11T18:13:53.031Z,29.92
2018-12-11T18:16:27.300Z,16.12
2018-12-11T18:19:01.744Z,16.02
2018-12-11T18:21:36.072Z,41.15
2018-12-11T18:24:10.476Z,26.85
2018-12-11T18:26:44.824Z,46.08
2018-12-11T18:29:19.270Z,34.90
2018-12-11T18:31:53.932Z,16.77
2018-12-11T18:34:28.465Z,16.42
2018-12-11T18:37:03.136Z,11.35
2018-12-11T18:39:37.537Z,8.73
2018-12-11T18:42:12.045Z,10.23
2018-12-11T18:44:46.341Z,14.13
2018-12-11T18:47:20.611Z,16.27
2018-12-11T18:49:55.013Z,15.50
2018-12-11T18:52:29.394Z,15.48
2018-12-11T18:55:04.164Z,14.30
2018-12-11T18:57:38.679Z,35.13
2018-12-11T19:00:13.184Z,14.83
2018-12-11T19:02:47.846Z,22.82
2018-12-11T19:05:22.283Z,19.37
2018-12-11T19:07:56.833Z,18.67
2018-12-11T19:10:31.364Z,21.82
2018-12-11T19:13:05.741Z,10.98
2018-12-11T19:15:40.136Z,9.88
2018-12-11T19:18:14.584Z,7.40
2018-12-11T19:20:49.169Z,7.08
2018-12-11T19:23:31.092Z,9.55
2018-12-11T19:26:05.821Z,11.45
2018-12-11T19:28:40.444Z,11.08
2018-12-11T19:31:14.720Z,19.00
2018-12-11T19:33:49.231Z,30.02
2018-12-11T19:36:23.650Z,41.30
2018-12-11T19:38:58.108Z,42.10
2018-12-11T19:41:33.419Z,47.58
2018-12-11T19:44:07.901Z,22.05
2018-12-11T19:46:42.265Z,37.83
2018-12-11T19:49:16.716Z,49.18
2018-12-11T19:51:51.327Z,31.52
2018-12-11T19:54:26.114Z,18.98
2018-12-11T19:57:00.557Z,12.50
2018-12-11T19:59:35.813Z,22.37
2018-12-11T20:02:10.232Z,18.17
2018-12-11T20:04:44.563Z,15.23
2018-12-11T20:07:18.976Z,13.53
2018-12-11T20:09:59.003Z,15.03
2018-12-11T20:12:33.594Z,15.18
2018-12-11T20:15:09.325Z,10.78
2018-12-11T20:17:43.679Z,7.70
2018-12-11T20:20:26.419Z,14.13
2018-12-11T20:23:00.757Z,14.53
2018-12-11T20:25:35.408Z,13.38
2018-12-11T20:28:09.848Z,14.53
2018-12-11T20:30:44.154Z,35.28
2018-12-11T20:33:18.743Z,24.90
2018-12-11T20:35:53.271Z,43.80
2018-12-11T20:38:27.716Z,16.85
2018-12-11T20:41:02.127Z,20.12
2018-12-11T20:43:36.512Z,7.92
2018-12-11T20:46:10.825Z,7.08
2018-12-11T20:48:45.337Z,16.93
2018-12-11T20:51:20.015Z,33.18
2018-12-11T20:53:54.633Z,23.32
2018-12-11T20:56:29.064Z,22.93
2018-12-11T20:59:03.634Z,17.80
2018-12-11T21:01:38.299Z,22.17
2018-12-11T21:04:12.777Z,55.92
2018-12-11T21:06:47.673Z,86.80
2018-12-11T21:09:22.155Z,40.83
2018-12-11T21:11:56.469Z,29.50
2018-12-11T21:14:30.993Z,8.18
2018-12-11T21:17:05.349Z,7.15
2018-12-11T21:19:39.987Z,8.05
2018-12-11T21:22:14.432Z,6.67
2018-12-11T21:24:48.751Z,6.40
2018-12-11T21:27:23.095Z,35.88
2018-12-11T21:29:57.516Z,45.23
2018-12-11T21:32:31.968Z,54.42
2018-12-11T21:35:08.111Z,36.35
2018-12-11T21:37:42.494Z,31.73
2018-12-11T21:40:17.060Z,34.35
2018-12-11T21:42:51.476Z,57.45
2018-12-11T21:45:25.805Z,44.38
2018-12-11T21:48:00.310Z,29.63
2018-12-11T21:50:34.880Z,21.57
2018-12-11T21:53:09.320Z,11.38
2018-12-11T21:55:43.684Z,18.73
2018-12-11T21:58:18.292Z,15.80
2018-12-11T22:00:52.729Z,13.95
2018-12-11T22:03:27.439Z,9.98
2018-12-11T22:06:02.177Z,14.98
2018-12-11T22:08:36.650Z,11.93
2018-12-11T22:11:11.217Z,11.65
2018-12-11T22:13:45.848Z,6.95
2018-12-11T22:16:20.288Z,6.10
2018-12-11T22:18:54.780Z,15.40
2018-12-11T22:21:29.113Z,16.90
2018-12-11T22:24:03.441Z,17.60
2018-12-11T22:26:37.733Z,17.50
2018-12-11T22:29:12.171Z,16.87
2018-12-11T22:31:46.814Z,20.37
2018-12-11T22:34:21.215Z,21.23
2018-12-11T22:36:55.680Z,14.07
2018-12-11T22:39:30.049Z,13.20
2018-12-11T22:42:04.464Z,13.28
2018-12-11T22:44:39.910Z,19.02
2018-12-11T22:47:14.488Z,22.82
2018-12-11T22:49:48.980Z,35.95
2018-12-11T22:52:23.796Z,37.15
2018-12-11T22:54:58.117Z,44.03
2018-12-11T22:57:32.688Z,18.30
2018-12-11T23:00:08.100Z,29.12
2018-12-11T23:02:42.368Z,9.38
2018-12-11T23:05:16.741Z,5.87
2018-12-11T23:07:51.211Z,3.83
2018-12-11T23:10:25.530Z,4.05
2018-12-11T23:13:00.101Z,11.53
2018-12-11T23:15:34.735Z,6.10
2018-12-11T23:18:09.019Z,5.50
2018-12-11T23:20:43.447Z,5.22
2018-12-11T23:23:17.836Z,5.33
2018-12-11T23:25:52.270Z,8.10
2018-12-11T23:28:26.752Z,4.72
2018-12-11T23:31:01.190Z,4.15
2018-12-11T23:33:35.691Z,5.67
2018-12-11T23:36:10.080Z,6.78
2018-12-11T23:38:44.379Z,5.17
2018-12-11T23:41:18.884Z,9.08
2018-12-11T23:43:53.162Z,4.97
2018-12-11T23:46:27.585Z,4.40
2018-12-11T23:49:01.877Z,7.37
2018-12-11T23:51:36.212Z,4.00
2018-12-11T23:54:10.487Z,10.32
2018-12-11T23:56:44.973Z,12.33
2018-12-11T23:59:19.519Z,22.48
